Time;durP1;ratioP1;P1;durP2;ratioP2;P2;SDS_P1;SDS_P2;PMS_P1;PMS_P2;Temp;Humidity;BMP_temperature;BMP_pressure;BME280_temperature;BME280_humidity;BME280_pressure;Samples;Min_cycle;Max_cycle;Signal;HPM_P1;HPM_P2
2022/03/29 00:00:24;;;;;;;7.88;6.55;;;;;;;10.65;57.13;101223.00;5005173;28;102895;-51
2022/03/29 00:02:51;;;;;;;8.80;6.20;;;;;;;10.65;57.20;101219.44;5011546;28;104034;-51
2022/03/29 00:05:19;;;;;;;7.40;6.00;;;;;;;10.64;56.85;101215.91;4999457;28;102265;-51
2022/03/29 00:07:46;;;;;;;9.50;6.47;;;;;;;10.64;57.53;101210.47;5010222;28;102797;-51
2022/03/29 00:10:14;;;;;;;8.45;6.18;;;;;;;10.64;57.03;101210.47;5011879;28;102105;-51
2022/03/29 00:12:42;;;;;;;7.53;6.32;;;;;;;10.63;57.07;101211.53;5012130;28;104104;-51
2022/03/29 00:15:10;;;;;;;8.45;5.85;;;;;;;10.64;57.16;101215.91;5014605;28;101850;-51
2022/03/29 00:17:37;;;;;;;7.20;6.00;;;;;;;10.64;56.96;101205.03;5018256;28;102352;-51
2022/03/29 00:20:05;;;;;;;6.68;5.65;;;;;;;10.64;57.07;101198.72;5006683;27;102271;-51
2022/03/29 00:22:32;;;;;;;11.90;6.25;;;;;;;10.63;57.05;101187.03;5005233;28;103650;-51
2022/03/29 00:24:59;;;;;;;10.68;6.03;;;;;;;10.63;57.33;101187.03;5014702;28;102699;-51
2022/03/29 00:27:27;;;;;;;9.10;6.22;;;;;;;10.63;57.45;101178.03;5013527;28;102013;-51
2022/03/29 00:29:54;;;;;;;6.65;5.60;;;;;;;10.63;57.49;101178.84;5005938;28;102372;-51
2022/03/29 00:32:21;;;;;;;6.22;5.53;;;;;;;10.63;57.06;101173.41;5013227;28;103877;-51
2022/03/29 00:34:49;;;;;;;6.13;5.00;;;;;;;10.63;57.36;101162.53;5011260;28;102320;-51
2022/03/29 00:37:16;;;;;;;6.35;5.18;;;;;;;10.63;57.17;101157.09;4993291;28;102349;-51
2022/03/29 00:39:44;;;;;;;7.22;5.57;;;;;;;10.62;57.38;101147.28;4995521;28;102094;-51
2022/03/29 00:42:10;;;;;;;5.88;5.28;;;;;;;10.62;57.42;101147.28;5007444;28;104036;-51
2022/03/29 00:44:39;;;;;;;6.38;5.45;;;;;;;10.62;57.38;101141.84;5007930;28;101983;-51
2022/03/29 00:47:06;;;;;;;6.88;5.90;;;;;;;10.62;57.04;101133.69;5013118;28;102227;-52
2022/03/29 00:49:35;;;;;;;7.17;5.93;;;;;;;10.62;57.18;101133.69;5013003;28;102609;-52
2022/03/29 00:52:04;;;;;;;10.18;5.70;;;;;;;10.63;57.18;101131.78;5006424;28;103912;-51
2022/03/29 00:54:35;;;;;;;8.80;5.60;;;;;;;10.62;57.09;101130.97;5003372;28;102434;-51
2022/03/29 00:57:03;;;;;;;8.23;5.57;;;;;;;10.63;57.13;101137.22;5009505;28;104088;-51
2022/03/29 00:59:30;;;;;;;6.90;5.07;;;;;;;10.62;57.49;101128.25;5012713;28;102159;-51
2022/03/29 01:02:00;;;;;;;7.38;5.25;;;;;;;10.63;57.48;101126.31;5012515;28;103906;-51
2022/03/29 01:04:27;;;;;;;6.30;4.60;;;;;;;10.63;57.58;101127.16;5012976;28;101887;-51
2022/03/29 01:06:59;;;;;;;6.63;5.10;;;;;;;10.63;57.27;101127.16;5012845;28;101893;-52
2022/03/29 01:09:30;;;;;;;8.73;5.07;;;;;;;10.63;57.21;101131.78;5014406;28;101998;-51
2022/03/29 01:11:58;;;;;;;6.10;5.05;;;;;;;10.64;57.63;101130.69;5010537;28;103909;-51
2022/03/29 01:14:26;;;;;;;10.00;5.18;;;;;;;10.63;57.44;101116.25;5012831;28;102456;-51
2022/03/29 01:19:43;;;;;;;8.68;5.47;;;;;;;10.62;57.68;101111.91;5014373;28;102094;-51
2022/03/29 01:22:13;;;;;;;7.65;4.72;;;;;;;10.62;57.20;101103.75;5012815;28;104589;-51
2022/03/29 01:24:42;;;;;;;8.45;7.88;;;;;;;10.63;57.49;101099.94;5013472;28;102595;-52
2022/03/29 01:27:12;;;;;;;6.68;4.90;;;;;;;10.63;57.83;101089.03;5005926;28;102035;-51
2022/03/29 01:29:40;;;;;;;6.80;4.72;;;;;;;10.62;57.81;101081.97;4994293;28;102413;-51
2022/03/29 01:32:09;;;;;;;7.00;4.90;;;;;;;10.62;57.13;101086.59;4992515;28;103874;-51
2022/03/29 01:34:37;;;;;;;6.47;4.50;;;;;;;10.62;57.97;101087.41;4992160;28;101922;-51
2022/03/29 01:37:05;;;;;;;5.57;4.60;;;;;;;10.61;57.50;101093.94;4996412;28;105216;-51
2022/03/29 01:39:33;;;;;;;7.88;4.70;;;;;;;10.62;57.36;101092.84;5004723;28;102233;-51
2022/03/29 01:42:03;;;;;;;5.03;4.47;;;;;;;10.63;57.69;101096.38;4991218;28;103892;-51
2022/03/29 01:44:30;;;;;;;12.07;4.45;;;;;;;10.62;57.91;101086.59;5002259;28;101817;-51
2022/03/29 01:46:58;;;;;;;6.25;5.38;;;;;;;10.63;57.91;101088.22;5011107;28;101787;-51
2022/03/29 01:49:25;;;;;;;5.28;4.45;;;;;;;10.62;58.14;101081.97;5012853;28;102165;-51
2022/03/29 01:51:52;;;;;;;6.65;4.63;;;;;;;10.63;57.47;101071.91;5008602;28;104104;-51
2022/03/29 01:54:19;;;;;;;6.70;4.50;;;;;;;10.62;57.72;101071.09;5002242;28;102739;-51
2022/03/29 01:56:47;;;;;;;6.82;4.78;;;;;;;10.62;57.91;101068.34;5003327;28;102523;-52
2022/03/29 01:59:14;;;;;;;6.65;4.82;;;;;;;10.62;58.09;101064.81;5014059;28;102154;-50
2022/03/29 02:01:45;;;;;;;6.60;4.88;;;;;;;10.63;57.57;101055.56;4996789;28;103958;-51
2022/03/29 02:04:13;;;;;;;5.32;4.53;;;;;;;10.62;57.89;101057.47;5012757;28;102350;-51
2022/03/29 02:06:41;;;;;;;5.88;4.93;;;;;;;10.61;57.31;101047.69;5009771;28;102385;-50
2022/03/29 02:09:08;;;;;;;7.38;4.47;;;;;;;10.62;57.38;101046.59;5008916;28;102361;-51
2022/03/29 02:11:36;;;;;;;5.18;4.32;;;;;;;10.62;57.55;101038.41;5009276;28;103709;-51
2022/03/29 02:14:05;;;;;;;5.88;4.50;;;;;;;10.62;57.70;101043.88;5012993;28;102405;-51
2022/03/29 02:16:34;;;;;;;8.68;5.03;;;;;;;10.63;58.12;101044.69;5011412;28;102360;-51
2022/03/29 02:19:00;;;;;;;5.93;4.15;;;;;;;10.62;57.44;101032.97;5012269;28;102289;-51
2022/03/29 02:21:27;;;;;;;7.05;4.53;;;;;;;10.61;58.04;101023.19;5011364;28;103993;-51
2022/03/29 02:23:54;;;;;;;7.05;4.38;;;;;;;10.62;58.07;101024.00;5012969;28;102250;-51
2022/03/29 02:26:21;;;;;;;7.07;4.30;;;;;;;10.63;58.20;101020.19;5011054;28;102409;-51
2022/03/29 02:28:49;;;;;;;7.20;4.70;;;;;;;10.61;57.90;101020.47;5003648;28;102831;-51
2022/03/29 02:31:17;;;;;;;6.25;4.28;;;;;;;10.63;58.36;101022.91;5011490;28;103964;-51
2022/03/29 02:33:44;;;;;;;7.55;4.30;;;;;;;10.62;57.64;101022.09;5012146;28;101960;-51
2022/03/29 02:36:13;;;;;;;6.00;4.35;;;;;;;10.62;58.00;101022.09;5012094;28;101874;-51
2022/03/29 02:38:41;;;;;;;7.32;4.53;;;;;;;10.62;57.63;101015.81;4994333;28;102907;-51
2022/03/29 02:41:08;;;;;;;4.32;3.90;;;;;;;10.62;57.86;101011.19;4990583;28;103909;-51
2022/03/29 02:43:36;;;;;;;7.18;4.78;;;;;;;10.61;57.72;101012.28;4991794;28;102223;-51
2022/03/29 02:46:03;;;;;;;6.18;4.47;;;;;;;10.62;58.25;101011.19;5008620;28;102774;-51
2022/03/29 02:48:34;;;;;;;7.88;4.13;;;;;;;10.62;57.82;101016.66;5010570;28;102158;-51
2022/03/29 02:51:01;;;;;;;6.60;4.47;;;;;;;10.62;57.94;101013.09;5003637;28;104220;-51
2022/03/29 02:53:33;;;;;;;7.97;4.45;;;;;;;10.62;58.39;101003.03;4997232;28;102372;-51
2022/03/29 02:55:59;;;;;;;5.18;4.07;;;;;;;10.62;57.95;101005.75;5011772;28;102166;-51
2022/03/29 02:58:26;;;;;;;7.93;4.57;;;;;;;10.61;58.04;100995.97;5011232;28;101972;-50
2022/03/29 03:00:53;;;;;;;4.78;3.83;;;;;;;10.62;58.03;101007.66;5010555;28;103951;-50
2022/03/29 03:03:20;;;;;;;6.38;4.47;;;;;;;10.61;57.67;101009.56;5011452;28;101880;-50
2022/03/29 03:05:48;;;;;;;5.35;4.03;;;;;;;10.62;58.58;101013.91;5010982;28;102245;-50
2022/03/29 03:08:32;;;;;;;5.32;3.90;;;;;;;10.61;57.98;101003.31;5004814;28;102219;-50
2022/03/29 03:10:59;;;;;;;5.38;3.85;;;;;;;10.62;57.93;100999.50;4990905;28;103924;-50
2022/03/29 03:13:27;;;;;;;9.75;4.55;;;;;;;10.62;57.92;101008.47;4991293;28;101836;-50
2022/03/29 03:15:53;;;;;;;5.47;4.03;;;;;;;10.61;58.00;101012.28;4991061;28;101839;-50
2022/03/29 03:18:20;;;;;;;10.25;3.80;;;;;;;10.61;57.81;101004.13;4991712;28;102289;-50
2022/03/29 03:20:48;;;;;;;5.82;4.15;;;;;;;10.62;58.37;100999.50;4990723;28;104056;-50
2022/03/29 03:23:14;;;;;;;5.60;3.97;;;;;;;10.62;58.01;101000.31;4991109;28;102112;-50
2022/03/29 03:25:41;;;;;;;6.13;3.90;;;;;;;10.62;57.99;100999.50;4994659;28;101950;-50
2022/03/29 03:28:08;;;;;;;6.35;4.28;;;;;;;10.61;58.38;101006.03;5011187;28;102729;-50
2022/03/29 03:30:37;;;;;;;4.93;3.80;;;;;;;10.62;57.95;101004.94;5014067;28;104069;-50
2022/03/29 03:33:04;;;;;;;5.43;3.80;;;;;;;10.62;57.95;101005.75;5014314;28;102036;-50
2022/03/29 03:35:30;;;;;;;5.50;4.15;;;;;;;10.61;57.96;101004.13;5013819;28;102420;-50
2022/03/29 03:37:59;;;;;;;5.95;3.80;;;;;;;10.63;58.79;101001.13;5010587;28;102472;-50
2022/03/29 03:40:26;;;;;;;4.68;3.85;;;;;;;10.61;58.44;100993.25;5013364;28;103838;-50
2022/03/29 03:42:53;;;;;;;4.88;3.70;;;;;;;10.62;58.49;100991.34;5013643;28;102249;-50
2022/03/29 03:45:20;;;;;;;7.25;4.30;;;;;;;10.62;58.13;100983.16;5001388;28;102093;-50
2022/03/29 03:47:47;;;;;;;5.03;3.80;;;;;;;10.62;58.31;100988.63;5007135;28;102722;-50
2022/03/29 03:50:15;;;;;;;8.48;4.45;;;;;;;10.61;58.46;100982.34;5012421;28;104056;-50
2022/03/29 03:52:41;;;;;;;6.60;3.60;;;;;;;10.61;58.23;100990.53;5013579;28;102163;-50
2022/03/29 03:55:10;;;;;;;7.10;3.90;;;;;;;10.62;58.66;100988.63;5013890;28;102280;-50
2022/03/29 03:57:37;;;;;;;5.10;3.58;;;;;;;10.62;58.49;100989.44;5003241;28;102438;-50
2022/03/29 04:00:06;;;;;;;5.30;3.50;;;;;;;10.61;57.96;100985.06;5011890;28;103805;-50
2022/03/29 04:02:33;;;;;;;4.90;3.70;;;;;;;10.61;58.63;100987.78;5012391;28;102033;-50
2022/03/29 04:05:00;;;;;;;7.43;3.63;;;;;;;10.62;57.99;100988.63;5013982;28;102134;-50
2022/03/29 04:07:28;;;;;;;4.85;3.35;;;;;;;10.61;58.25;100985.06;5013334;28;102213;-50
2022/03/29 04:09:56;;;;;;;6.03;3.95;;;;;;;10.61;58.62;100976.09;5013644;28;103700;-50
2022/03/29 04:12:27;;;;;;;4.45;3.70;;;;;;;10.62;58.35;100977.72;5013520;28;102558;-50
2022/03/29 04:14:54;;;;;;;5.75;3.85;;;;;;;10.61;58.26;100976.91;5013382;28;101875;-50
2022/03/29 04:17:21;;;;;;;5.95;3.40;;;;;;;10.62;57.99;100972.28;5013062;28;101969;-50
2022/03/29 04:19:50;;;;;;;7.75;4.07;;;;;;;10.61;58.35;100965.22;5012965;28;103923;-50
2022/03/29 04:22:18;;;;;;;6.60;3.83;;;;;;;10.62;58.23;100956.78;5014870;28;102432;-50
2022/03/29 04:24:45;;;;;;;4.90;3.30;;;;;;;10.61;57.95;100954.31;5015377;28;101980;-50
2022/03/29 04:27:12;;;;;;;3.80;2.83;;;;;;;10.62;58.60;100962.22;5013511;28;102526;-51
2022/03/29 04:29:40;;;;;;;3.42;2.88;;;;;;;10.62;58.10;100962.22;5008558;28;104371;-50
2022/03/29 04:32:08;;;;;;;3.75;2.75;;;;;;;10.62;57.92;100959.50;5014740;28;102283;-50
2022/03/29 04:34:35;;;;;;;8.90;3.30;;;;;;;10.62;58.51;100945.88;5013676;28;102149;-50
2022/03/29 04:37:05;;;;;;;4.85;3.10;;;;;;;10.63;58.16;100942.06;5014659;28;102388;-50
2022/03/29 04:39:31;;;;;;;4.38;3.30;;;;;;;10.64;58.01;100945.59;5011159;28;103968;-50
2022/03/29 04:41:58;;;;;;;6.00;3.40;;;;;;;10.64;57.88;100938.28;5011459;28;101897;-50
2022/03/29 04:44:25;;;;;;;5.95;3.35;;;;;;;10.65;57.75;100933.66;5007898;28;101984;-50
2022/03/29 04:46:53;;;;;;;6.10;3.22;;;;;;;10.65;58.02;100928.22;4994089;28;102167;-52
2022/03/29 04:49:20;;;;;;;8.10;3.47;;;;;;;10.66;57.90;100935.28;5000196;28;103881;-50
2022/03/29 04:51:46;;;;;;;6.90;3.72;;;;;;;10.65;58.15;100928.22;5013515;28;101895;-50
2022/03/29 04:54:13;;;;;;;4.22;3.33;;;;;;;10.65;57.74;100937.19;5013561;28;101913;-50
2022/03/29 04:56:40;;;;;;;7.15;3.60;;;;;;;10.66;58.02;100930.66;5014532;28;102406;-50
2022/03/29 04:59:07;;;;;;;5.78;3.42;;;;;;;10.67;58.00;100937.72;5011310;28;103698;-50
2022/03/29 05:01:36;;;;;;;5.65;3.33;;;;;;;10.67;57.48;100937.72;5002071;28;102995;-50
2022/03/29 05:04:05;;;;;;;5.43;3.53;;;;;;;10.68;58.09;100931.22;4996843;28;102317;-50
2022/03/29 05:06:32;;;;;;;10.03;3.53;;;;;;;10.68;57.45;100928.50;4993859;28;102585;-50
2022/03/29 05:08:58;;;;;;;5.60;3.75;;;;;;;10.69;57.51;100927.41;4992493;28;103872;-50
2022/03/29 05:11:26;;;;;;;7.28;3.60;;;;;;;10.69;57.44;100921.97;4993444;28;101968;-50
2022/03/29 05:13:52;;;;;;;6.65;4.00;;;;;;;10.69;57.14;100921.16;4992696;28;101953;-50
2022/03/29 05:16:19;;;;;;;11.98;4.13;;;;;;;10.70;57.51;100926.31;5001888;28;102153;-50
2022/03/29 05:18:49;;;;;;;9.18;4.00;;;;;;;10.71;57.34;100933.41;5008104;28;103979;-50
2022/03/29 05:21:18;;;;;;;5.82;3.72;;;;;;;10.73;57.92;100930.41;5007860;28;101982;-50
2022/03/29 05:23:46;;;;;;;7.68;3.92;;;;;;;10.73;58.09;100933.94;5007255;28;102652;-50
2022/03/29 05:26:14;;;;;;;7.07;3.67;;;;;;;10.73;57.51;100923.06;5014788;28;102198;-50
2022/03/29 05:28:41;;;;;;;9.27;3.92;;;;;;;10.74;57.35;100916.50;5012833;28;103813;-50
2022/03/29 05:31:08;;;;;;;7.57;3.83;;;;;;;10.74;57.44;100921.16;5012619;28;101848;-50
2022/03/29 05:33:35;;;;;;;6.50;3.78;;;;;;;10.74;57.42;100924.69;5012583;28;102209;-51
2022/03/29 05:36:02;;;;;;;7.68;3.50;;;;;;;10.75;57.47;100920.09;5014344;28;102056;-50
2022/03/29 05:38:30;;;;;;;7.38;3.90;;;;;;;10.74;57.36;100919.25;5011789;28;103915;-50
2022/03/29 05:40:57;;;;;;;6.55;3.50;;;;;;;10.74;57.49;100916.50;5012956;28;102377;-50
2022/03/29 05:43:24;;;;;;;5.60;3.35;;;;;;;10.74;57.62;100921.97;5010360;28;102046;-50
2022/03/29 05:48:52;;;;;;;6.90;3.20;;;;;;;10.75;57.81;100928.25;4996435;28;103033;-51
2022/03/29 05:51:19;;;;;;;5.82;3.28;;;;;;;10.75;57.41;100922.81;5000679;28;102431;-50
2022/03/29 05:53:47;;;;;;;5.97;3.13;;;;;;;10.75;57.40;100922.81;4996664;28;102295;-51
2022/03/29 05:56:14;;;;;;;5.82;3.67;;;;;;;10.75;57.37;100920.91;5006478;28;102820;-50
2022/03/29 05:58:40;;;;;;;5.63;3.28;;;;;;;10.75;57.76;100920.09;5001947;28;104489;-50
2022/03/29 06:01:08;;;;;;;7.07;3.60;;;;;;;10.75;57.58;100915.44;5004598;28;102815;-50
2022/03/29 06:03:35;;;;;;;7.47;3.42;;;;;;;10.75;57.88;100917.38;5002180;28;102292;-50
2022/03/29 06:06:02;;;;;;;5.30;3.40;;;;;;;10.75;57.51;100911.91;5004236;28;102181;-50
2022/03/29 06:08:31;;;;;;;4.00;3.50;;;;;;;10.75;57.68;100918.19;4998107;28;104075;-50
2022/03/29 06:10:59;;;;;;;;;;;;;;;10.74;57.65;100913.78;5012614;28;102322;-50
2022/03/29 06:13:26;;;;;;;6.03;3.47;;;;;;;10.76;57.85;100924.44;5011425;28;102400;-50
2022/03/29 06:15:55;;;;;;;5.45;3.50;;;;;;;10.75;57.65;100923.63;5014090;28;102769;-50
2022/03/29 06:18:22;;;;;;;5.07;3.58;;;;;;;10.76;57.65;100927.16;4998184;28;103862;-50
2022/03/29 06:20:49;;;;;;;5.63;3.40;;;;;;;10.75;57.73;100923.63;4995515;28;102276;-50
2022/03/29 06:23:16;;;;;;;4.93;3.72;;;;;;;10.75;57.90;100920.91;5009320;28;102190;-50
2022/03/29 06:25:43;;;;;;;7.20;3.45;;;;;;;10.75;57.36;100920.09;5012530;28;101980;-51
2022/03/29 06:28:11;;;;;;;5.75;3.63;;;;;;;10.77;57.86;100926.88;5011237;28;103830;-50
2022/03/29 06:30:38;;;;;;;5.43;3.97;;;;;;;10.77;57.87;100920.63;5011294;28;101995;-50
2022/03/29 06:33:05;;;;;;;6.72;3.38;;;;;;;10.76;57.60;100919.81;5011729;28;102050;-50
2022/03/29 06:35:35;;;;;;;6.38;3.50;;;;;;;10.76;57.74;100919.00;5012686;28;102114;-50
2022/03/29 06:38:02;;;;;;;5.35;3.65;;;;;;;10.75;57.65;100912.72;5010897;28;103889;-50
2022/03/29 06:40:29;;;;;;;6.15;3.65;;;;;;;10.75;57.93;100912.72;5012260;28;102103;-50
2022/03/29 06:43:00;;;;;;;7.18;3.90;;;;;;;10.76;57.77;100911.63;5011366;28;102013;-50
2022/03/29 06:45:28;;;;;;;8.70;4.10;;;;;;;10.76;57.69;100908.91;5012928;28;102582;-50
2022/03/29 06:47:58;;;;;;;5.70;3.83;;;;;;;10.77;57.43;100910.53;5010365;28;104631;-50
2022/03/29 06:50:24;;;;;;;6.22;3.92;;;;;;;10.76;57.53;100908.91;5011601;28;101989;-51
2022/03/29 06:52:51;;;;;;;5.03;3.50;;;;;;;10.76;57.88;100908.91;5011591;28;101972;-50
2022/03/29 06:55:18;;;;;;;5.07;3.30;;;;;;;10.77;57.59;100898.84;5013057;28;102815;-50
2022/03/29 06:57:45;;;;;;;7.85;3.42;;;;;;;10.77;57.86;100894.22;5011290;28;104034;-50
2022/03/29 07:00:13;;;;;;;7.55;3.47;;;;;;;10.76;57.77;100898.03;5015591;28;101844;-50
2022/03/29 07:02:42;;;;;;;6.17;3.73;;;;;;;10.77;57.84;100885.22;5014776;28;102178;-50
2022/03/29 07:05:10;;;;;;;6.50;3.75;;;;;;;10.77;57.88;100882.50;5015063;28;102188;-50
2022/03/29 07:07:37;;;;;;;5.30;4.05;;;;;;;10.77;58.09;100880.59;5006109;28;103902;-50
2022/03/29 07:12:53;;;;;;;7.55;4.03;;;;;;;10.78;57.62;100873.25;4994298;28;101973;-50
2022/03/29 07:15:20;;;;;;;6.40;3.67;;;;;;;10.76;58.13;100870.00;4996232;28;101967;-50
2022/03/29 07:17:49;;;;;;;7.35;4.32;;;;;;;10.76;57.86;100865.34;4994094;28;103892;-50
2022/03/29 07:20:17;;;;;;;5.50;3.80;;;;;;;10.77;57.54;100860.72;4995478;28;101884;-53
2022/03/29 07:22:44;;;;;;;6.90;3.50;;;;;;;10.77;57.57;100861.53;5002014;28;102525;-50
2022/03/29 07:25:11;;;;;;;4.50;3.80;;;;;;;10.77;57.68;100861.53;5016038;28;102402;-50
2022/03/29 07:27:39;;;;;;;5.63;4.50;;;;;;;10.78;57.42;100863.19;5001324;28;103929;-50
2022/03/29 07:30:07;;;;;;;6.55;4.38;;;;;;;10.79;57.45;100855.84;5001364;28;103775;-50
2022/03/29 07:32:42;;;;;;;11.00;4.70;;;;;;;10.79;57.68;100862.09;4995685;28;102902;-50
2022/03/29 07:35:11;;;;;;;6.43;3.97;;;;;;;10.81;57.58;100857.19;4999549;28;102661;-50
2022/03/29 07:37:38;;;;;;;7.37;4.60;;;;;;;10.81;57.68;100857.19;4998922;28;104054;-50
2022/03/29 07:40:08;;;;;;;8.68;4.55;;;;;;;10.82;57.57;100852.59;5002238;28;102487;-50
2022/03/29 07:42:38;;;;;;;7.20;4.57;;;;;;;10.82;57.63;100847.97;4995482;28;102087;-50
2022/03/29 07:45:06;;;;;;;9.65;4.95;;;;;;;10.85;58.03;100845.75;5009308;28;102534;-50
2022/03/29 07:47:36;;;;;;;16.55;5.28;;;;;;;10.85;57.91;100851.22;4997499;28;103910;-50
2022/03/29 07:50:07;;;;;;;13.50;5.63;;;;;;;10.85;57.70;100843.84;5001503;28;103906;-50
2022/03/29 07:52:37;;;;;;;17.38;6.13;;;;;;;10.85;57.97;100845.75;5006833;28;102529;-50
2022/03/29 07:55:04;;;;;;;19.60;6.10;;;;;;;10.85;57.36;100845.75;5013913;28;102167;-50
2022/03/29 07:57:31;;;;;;;17.60;6.15;;;;;;;10.86;57.75;100841.97;5013062;28;103964;-51
2022/03/29 07:59:58;;;;;;;16.30;6.30;;;;;;;10.87;57.58;100843.59;5013513;28;102365;-50
2022/03/29 08:02:25;;;;;;;16.88;6.03;;;;;;;10.87;57.66;100830.00;5013525;28;102571;-50
2022/03/29 08:04:51;;;;;;;14.20;5.82;;;;;;;10.89;57.58;100835.97;5006548;28;102523;-50
2022/03/29 08:07:18;;;;;;;12.38;5.80;;;;;;;10.90;58.11;100833.00;5005730;28;103756;-50
2022/03/29 08:09:46;;;;;;;16.80;6.32;;;;;;;10.90;57.75;100832.19;4997602;28;102535;-50
2022/03/29 08:12:14;;;;;;;16.33;5.47;;;;;;;10.91;57.82;100822.91;5007682;28;102268;-50
2022/03/29 08:14:47;;;;;;;13.15;5.55;;;;;;;10.92;57.84;100829.97;5001002;28;102651;-50
2022/03/29 08:17:13;;;;;;;10.70;5.30;;;;;;;10.92;57.59;100816.38;4999454;28;103757;-51
2022/03/29 08:19:40;;;;;;;13.90;5.15;;;;;;;10.92;57.40;100813.66;4998239;28;102316;-50
2022/03/29 08:22:07;;;;;;;19.40;5.63;;;;;;;10.91;57.69;100812.03;5013295;28;101979;-52
2022/03/29 08:24:35;;;;;;;13.10;5.65;;;;;;;10.92;57.98;100813.66;5014864;28;102150;-52
2022/03/29 08:27:03;;;;;;;13.35;5.80;;;;;;;10.93;57.51;100815.31;4996505;28;103858;-52
2022/03/29 08:29:30;;;;;;;16.33;5.70;;;;;;;10.94;57.63;100800.59;5009599;28;102562;-52
2022/03/29 08:31:56;;;;;;;12.80;4.93;;;;;;;10.93;57.65;100802.50;5013051;28;102285;-52
2022/03/29 08:34:23;;;;;;;13.38;6.38;;;;;;;10.93;57.49;100794.34;5003345;28;102257;-52
2022/03/29 08:36:50;;;;;;;11.73;6.10;;;;;;;10.94;57.96;100784.25;4993902;28;104081;-52
2022/03/29 08:39:16;;;;;;;12.13;5.35;;;;;;;10.94;57.49;100792.41;4996793;28;102203;-52
2022/03/29 08:41:46;;;;;;;10.73;5.40;;;;;;;10.95;57.60;100791.31;4994474;28;102289;-53
2022/03/29 08:44:14;;;;;;;16.73;5.35;;;;;;;10.96;57.67;100790.22;4995906;28;102661;-52
2022/03/29 08:46:42;;;;;;;10.73;5.20;;;;;;;10.96;58.23;100782.06;5001787;28;103880;-52
2022/03/29 08:49:10;;;;;;;12.13;5.30;;;;;;;10.96;57.72;100782.06;5012637;28;102180;-50
2022/03/29 08:51:38;;;;;;;10.75;5.65;;;;;;;10.97;57.42;100772.81;5012938;28;101863;-50
2022/03/29 08:54:05;;;;;;;10.95;6.00;;;;;;;10.97;57.71;100762.75;5014032;28;102332;-52
2022/03/29 08:56:32;;;;;;;9.80;5.97;;;;;;;10.98;57.92;100761.63;5010748;28;104120;-50
2022/03/29 08:58:59;;;;;;;12.93;5.72;;;;;;;10.99;58.10;100759.72;5012632;28;102104;-51
2022/03/29 09:01:27;;;;;;;14.40;6.25;;;;;;;10.99;57.86;100760.53;5012611;28;103032;-50
2022/03/29 09:04:05;;;;;;;8.43;5.53;;;;;;;11.00;57.52;100750.50;5011827;28;102365;-50
2022/03/29 09:06:32;;;;;;;10.95;5.18;;;;;;;11.01;57.51;100757.56;5011612;28;104091;-50
2022/03/29 09:08:59;;;;;;;13.90;5.50;;;;;;;11.01;57.86;100752.94;5012358;28;102442;-50
2022/03/29 09:11:39;;;;;;;7.88;5.38;;;;;;;11.03;57.62;100749.91;4991748;28;103812;-51
2022/03/29 09:14:06;;;;;;;12.18;5.53;;;;;;;11.02;57.84;100742.84;4994489;28;101921;-50
2022/03/29 09:16:34;;;;;;;12.93;5.82;;;;;;;11.04;57.67;100746.13;4992125;28;103846;-50
2022/03/29 09:19:01;;;;;;;10.38;5.38;;;;;;;11.04;57.94;100735.25;4993043;28;102036;-50
2022/03/29 09:21:28;;;;;;;10.30;5.20;;;;;;;11.05;57.86;100732.22;5011775;28;102188;-50
2022/03/29 09:24:07;;;;;;;11.80;4.80;;;;;;;11.05;57.64;100726.78;5011741;28;102179;-49
2022/03/29 09:26:36;;;;;;;8.73;5.43;;;;;;;11.07;58.12;100724.63;5010969;28;104157;-51
2022/03/29 09:29:12;;;;;;;10.15;5.40;;;;;;;11.08;57.77;100711.81;5012921;28;101944;-50
2022/03/29 09:31:40;;;;;;;10.40;5.25;;;;;;;11.07;57.49;100712.88;5012177;28;101940;-49
2022/03/29 09:34:12;;;;;;;9.00;5.50;;;;;;;11.08;58.01;100709.09;5011744;28;102097;-49
2022/03/29 09:36:43;;;;;;;13.00;5.13;;;;;;;11.10;57.99;100700.63;5007231;28;103994;-49
2022/03/29 09:39:29;;;;;;;7.88;4.95;;;;;;;11.11;57.93;100702.25;5011641;28;102407;-50
2022/03/29 09:41:58;;;;;;;10.82;5.72;;;;;;;11.10;58.12;100704.16;5012243;28;102288;-50
2022/03/29 09:44:33;;;;;;;10.70;5.38;;;;;;;11.11;58.30;100702.25;5013544;28;102294;-50
2022/03/29 09:47:04;;;;;;;8.02;5.05;;;;;;;11.11;58.07;100692.19;5012556;28;103011;-50
2022/03/29 09:49:47;;;;;;;9.95;5.55;;;;;;;11.11;57.79;100700.38;5013511;28;102083;-50
2022/03/29 09:52:17;;;;;;;9.52;5.30;;;;;;;11.12;57.92;100691.09;5005530;28;102226;-49
2022/03/29 09:55:13;;;;;;;13.10;6.60;;;;;;;11.12;57.74;100684.84;5008199;28;102091;-50
2022/03/29 09:57:42;;;;;;;11.45;6.47;;;;;;;11.13;57.69;100683.75;5003472;28;103893;-49
2022/03/29 10:00:10;;;;;;;8.80;6.15;;;;;;;11.13;57.45;100679.09;5000822;28;104341;-49
2022/03/29 10:02:45;;;;;;;26.95;6.78;;;;;;;11.15;57.77;100676.94;5002689;28;102244;-49
2022/03/29 10:05:12;;;;;;;13.25;6.15;;;;;;;11.22;57.72;100677.47;5005262;28;102372;-50
2022/03/29 10:07:43;;;;;;;14.80;6.35;;;;;;;11.19;58.22;100669.84;5006091;28;104077;-50
2022/03/29 10:10:11;;;;;;;16.73;6.15;;;;;;;11.16;57.69;100667.66;5007271;28;101969;-50
2022/03/29 10:12:43;;;;;;;10.40;5.97;;;;;;;11.16;57.54;100662.22;5004171;28;102855;-50
2022/03/29 10:15:12;;;;;;;12.45;6.70;;;;;;;11.16;57.59;100659.50;5011528;28;102170;-50
2022/03/29 10:17:43;;;;;;;33.00;7.15;;;;;;;11.17;57.70;100649.41;5011188;28;104065;-49
2022/03/29 10:20:10;;;;;;;34.38;8.02;;;;;;;11.16;57.67;100656.75;5001396;28;102428;-50
2022/03/29 10:22:37;;;;;;;18.60;7.47;;;;;;;11.17;57.89;100647.50;4999548;28;102065;-49
2022/03/29 10:25:07;;;;;;;11.20;6.10;;;;;;;11.17;57.75;100647.50;4994319;28;102534;-51
2022/03/29 10:27:33;;;;;;;10.80;6.50;;;;;;;11.17;57.66;100639.31;4992882;28;103907;-50
2022/03/29 10:30:00;;;;;;;11.52;6.40;;;;;;;11.17;58.10;100639.31;4997741;28;102653;-50
2022/03/29 10:32:31;;;;;;;11.73;5.90;;;;;;;11.17;57.73;100631.16;5008453;28;102354;-50
2022/03/29 10:35:08;;;;;;;15.90;6.15;;;;;;;11.18;57.58;100635.53;5005675;28;102024;-50
2022/03/29 10:37:55;;;;;;;10.68;5.93;;;;;;;11.18;58.02;100621.91;4996283;28;103947;-50
2022/03/29 10:40:36;;;;;;;9.15;5.97;;;;;;;11.18;58.08;100627.34;4996878;28;102269;-50
2022/03/29 10:43:28;;;;;;;10.68;6.55;;;;;;;11.19;57.89;100622.72;4998576;28;102472;-50
2022/03/29 10:45:58;;;;;;;11.77;6.03;;;;;;;11.19;57.62;100628.97;4986850;28;102332;-50
2022/03/29 10:48:25;;;;;;;13.57;6.55;;;;;;;11.20;57.87;100613.44;4987326;28;103964;-50
2022/03/29 10:50:58;;;;;;;10.55;5.80;;;;;;;11.22;58.16;100609.34;5009556;28;102909;-50
2022/03/29 10:53:28;;;;;;;12.20;6.38;;;;;;;11.21;58.09;100615.88;5005108;28;102642;-53
2022/03/29 10:56:19;;;;;;;14.93;6.47;;;;;;;11.22;57.94;100601.19;5008230;28;102407;-52
2022/03/29 10:59:10;;;;;;;15.60;5.78;;;;;;;11.22;58.17;100601.19;4990585;28;104030;-52
2022/03/29 11:01:40;;;;;;;14.75;5.95;;;;;;;11.22;58.25;100601.19;5003609;28;102596;-52
2022/03/29 11:04:13;;;;;;;11.80;6.20;;;;;;;11.23;57.89;100597.34;5002110;28;102634;-52
2022/03/29 11:07:11;;;;;;;15.32;6.75;;;;;;;11.23;58.45;100586.47;4996032;28;102426;-52
2022/03/29 11:09:40;;;;;;;13.27;6.32;;;;;;;11.23;58.40;100588.38;4990314;28;104062;-52
2022/03/29 11:12:30;;;;;;;13.60;6.93;;;;;;;11.25;58.40;100578.00;5004289;28;102183;-52
2022/03/29 11:14:56;;;;;;;17.85;6.72;;;;;;;11.24;58.76;100579.91;4995793;28;102056;-52
2022/03/29 11:17:40;;;;;;;13.07;6.17;;;;;;;11.25;58.46;100578.84;5010522;28;102366;-52
2022/03/29 11:20:30;;;;;;;15.38;6.50;;;;;;;11.26;58.49;100569.56;5001327;28;103836;-52
2022/03/29 11:23:00;;;;;;;16.27;6.65;;;;;;;11.25;58.27;100562.50;4999150;28;102342;-52
2022/03/29 11:25:28;;;;;;;10.80;6.22;;;;;;;11.26;58.75;100564.13;4990971;28;102301;-52
2022/03/29 11:28:05;;;;;;;14.73;6.75;;;;;;;11.27;58.11;100564.94;4992441;28;102166;-52
2022/03/29 11:30:34;;;;;;;12.02;5.90;;;;;;;11.26;58.33;100557.84;5000678;28;104027;-52